Andrew Mcallister — WDE5582 — position and weather

sailwx.info

Track history (hours):
 
Tides and Currents Weather Stations Pressure Air Temp Water Temp Dewpoint Dewpoint Depression Visibility Wind Speed Wind Dir Waves Ship Positions

Andrew Mcallister

Owner: McAllister Towing & Transportation Co. Inc., Staten Island, NY. More information available from US FCC via Universal Licensing System and Coast Guard Vessel Documentation Center.

Last reported at 2017-Nov-09 18:53 UTC. Time now 2017-Nov-23 05:49 UTC.
Position N 42°53' W 070°25'.
Warning: this ship's position is 13 days out of date.

Length 28 m; draft 4.9 m.

Type: Tug. MMSI: 367368820.

Date/timePositionNaut miles runAvg speedWind from/ knotsBaromVisibWave heightAir tempDewpointWater temp
2017-Nov-09 18:53N 42°53' W 070°25'410.3
2017-Nov-09 18:30N 42°50' W 070°27'510.5
2017-Nov-09 18:00N 42°44' W 070°28'510.3
2017-Nov-09 17:30N 42°39' W 070°30'510.0
2017-Nov-09 17:00N 42°34' W 070°30'510.1
2017-Nov-09 16:30N 42°29' W 070°30'510.4
2017-Nov-09 16:00N 42°24' W 070°29'510.8
2017-Nov-09 15:30N 42°19' W 070°29'1 0.1
2017-Nov-09 00:23N 42°19' W 070°30'411.0
2017-Nov-09 00:00N 42°24' W 070°29'611.1
2017-Nov-08 23:30N 42°29' W 070°30'611.4
2017-Nov-08 23:00N 42°35' W 070°30'612.0
2017-Nov-08 22:30N 42°41' W 070°30'611.5
2017-Nov-08 22:00N 42°46' W 070°28'611.4
2017-Nov-08 21:30N 42°52' W 070°26'  
2017-Nov-04 14:12N 42°54' W 070°27'210.6
2017-Nov-04 14:00N 42°52' W 070°27'510.7
2017-Nov-04 13:30N 42°46' W 070°29'510.5
2017-Nov-04 13:00N 42°41' W 070°30'510.5
2017-Nov-04 12:30N 42°36' W 070°30'510.3
2017-Nov-04 12:00N 42°31' W 070°30'510.3
2017-Nov-04 11:30N 42°26' W 070°30'510.5
2017-Nov-04 11:00N 42°20' W 070°30'510.4
2017-Nov-04 10:30N 42°15' W 070°30'5 0.3
2017-Nov-03 17:32N 42°20' W 070°30'010.6
2017-Nov-03 17:30N 42°20' W 070°30'510.5
2017-Nov-03 17:00N 42°25' W 070°30'510.5
2017-Nov-03 16:30N 42°31' W 070°30'510.6
2017-Nov-03 16:00N 42°36' W 070°30'510.6
2017-Nov-03 15:30N 42°41' W 070°29'510.4
2017-Nov-03 15:00N 42°46' W 070°28'510.8
2017-Nov-03 14:30N 42°52' W 070°26'610.9
2017-Nov-03 14:00N 42°57' W 070°24'  
Track history (hours):
 
Tides and Currents Weather Stations Pressure Air Temp Water Temp Dewpoint Dewpoint Depression Visibility Wind Speed Wind Dir Waves Ship Positions

Andrew Mcallister

Owner: McAllister Towing & Transportation Co. Inc., Staten Island, NY. More information available from US FCC via Universal Licensing System and Coast Guard Vessel Documentation Center.

Last reported at 2017-Nov-09 18:53 UTC. Time now 2017-Nov-23 05:49 UTC.
Position N 42°53' W 070°25'.
Warning: this ship's position is 13 days out of date.

Length 28 m; draft 4.9 m.

Type: Tug. MMSI: 367368820.

Date/timePositionNaut miles runAvg speedWind from/ knotsBaromVisibWave heightAir tempDewpointWater temp
2017-Nov-09 18:53N 42°53' W 070°25'410.3
2017-Nov-09 18:30N 42°50' W 070°27'510.5
2017-Nov-09 18:00N 42°44' W 070°28'510.3
2017-Nov-09 17:30N 42°39' W 070°30'510.0
2017-Nov-09 17:00N 42°34' W 070°30'510.1
2017-Nov-09 16:30N 42°29' W 070°30'510.4
2017-Nov-09 16:00N 42°24' W 070°29'510.8
2017-Nov-09 15:30N 42°19' W 070°29'1 0.1
2017-Nov-09 00:23N 42°19' W 070°30'411.0
2017-Nov-09 00:00N 42°24' W 070°29'611.1
2017-Nov-08 23:30N 42°29' W 070°30'611.4
2017-Nov-08 23:00N 42°35' W 070°30'612.0
2017-Nov-08 22:30N 42°41' W 070°30'611.5
2017-Nov-08 22:00N 42°46' W 070°28'611.4
2017-Nov-08 21:30N 42°52' W 070°26'  
2017-Nov-04 14:12N 42°54' W 070°27'210.6
2017-Nov-04 14:00N 42°52' W 070°27'510.7
2017-Nov-04 13:30N 42°46' W 070°29'510.5
2017-Nov-04 13:00N 42°41' W 070°30'510.5
2017-Nov-04 12:30N 42°36' W 070°30'510.3
2017-Nov-04 12:00N 42°31' W 070°30'510.3
2017-Nov-04 11:30N 42°26' W 070°30'510.5
2017-Nov-04 11:00N 42°20' W 070°30'510.4
2017-Nov-04 10:30N 42°15' W 070°30'5 0.3
2017-Nov-03 17:32N 42°20' W 070°30'010.6
2017-Nov-03 17:30N 42°20' W 070°30'510.5
2017-Nov-03 17:00N 42°25' W 070°30'510.5
2017-Nov-03 16:30N 42°31' W 070°30'510.6
2017-Nov-03 16:00N 42°36' W 070°30'510.6
2017-Nov-03 15:30N 42°41' W 070°29'510.4
2017-Nov-03 15:00N 42°46' W 070°28'510.8
2017-Nov-03 14:30N 42°52' W 070°26'610.9
2017-Nov-03 14:00N 42°57' W 070°24'  

Dump ship's entire track history